sensor_id;sensor_type;location;lat;lon;timestamp;pressure;altitude;pressure_sealevel;temperature;humidity
8398;BME280;4236;54.504;9.588;2022-07-29T00:01:40;102117.44;;;13.10;86.75
8398;BME280;4236;54.504;9.588;2022-07-29T00:04:08;102118.97;;;13.04;86.36
8398;BME280;4236;54.504;9.588;2022-07-29T00:06:36;102119.50;;;13.00;86.54
8398;BME280;4236;54.504;9.588;2022-07-29T00:09:04;102109.97;;;12.97;87.02
8398;BME280;4236;54.504;9.588;2022-07-29T00:11:32;102117.38;;;12.95;87.60
8398;BME280;4236;54.504;9.588;2022-07-29T00:14:01;102113.84;;;12.95;87.33
8398;BME280;4236;54.504;9.588;2022-07-29T00:16:28;102115.22;;;12.91;87.59
8398;BME280;4236;54.504;9.588;2022-07-29T00:18:56;102109.22;;;12.89;87.53
8398;BME280;4236;54.504;9.588;2022-07-29T00:21:27;102109.22;;;12.89;87.98
8398;BME280;4236;54.504;9.588;2022-07-29T00:23:55;102103.03;;;12.88;88.33
8398;BME280;4236;54.504;9.588;2022-07-29T00:26:22;102110.41;;;12.86;88.03
8398;BME280;4236;54.504;9.588;2022-07-29T00:28:50;102103.72;;;12.82;88.12
8398;BME280;4236;54.504;9.588;2022-07-29T00:31:39;102106.59;;;12.81;88.09
8398;BME280;4236;54.504;9.588;2022-07-29T00:34:07;102106.97;;;12.77;88.26
8398;BME280;4236;54.504;9.588;2022-07-29T00:36:54;102106.47;;;12.74;88.34
8398;BME280;4236;54.504;9.588;2022-07-29T00:39:21;102107.81;;;12.70;88.58
8398;BME280;4236;54.504;9.588;2022-07-29T00:41:50;102109.03;;;12.67;88.80
8398;BME280;4236;54.504;9.588;2022-07-29T00:44:18;102108.38;;;12.65;88.72
8398;BME280;4236;54.504;9.588;2022-07-29T00:46:47;102105.03;;;12.63;88.64
8398;BME280;4236;54.504;9.588;2022-07-29T00:49:15;102111.56;;;12.61;88.73
8398;BME280;4236;54.504;9.588;2022-07-29T00:51:43;102101.22;;;12.58;89.07
8398;BME280;4236;54.504;9.588;2022-07-29T00:54:12;102112.94;;;12.57;89.08
8398;BME280;4236;54.504;9.588;2022-07-29T00:56:40;102115.78;;;12.55;89.10
8398;BME280;4236;54.504;9.588;2022-07-29T00:59:07;102108.78;;;12.54;89.59
8398;BME280;4236;54.504;9.588;2022-07-29T01:01:35;102111.28;;;12.56;89.70
8398;BME280;4236;54.504;9.588;2022-07-29T01:04:05;102116.44;;;12.57;90.23
8398;BME280;4236;54.504;9.588;2022-07-29T01:06:34;102117.63;;;12.55;90.00
8398;BME280;4236;54.504;9.588;2022-07-29T01:09:02;102116.13;;;12.52;90.14
8398;BME280;4236;54.504;9.588;2022-07-29T01:11:30;102120.19;;;12.48;89.99
8398;BME280;4236;54.504;9.588;2022-07-29T01:13:58;102115.19;;;12.45;89.57
8398;BME280;4236;54.504;9.588;2022-07-29T01:16:30;102109.16;;;12.43;89.73
8398;BME280;4236;54.504;9.588;2022-07-29T01:19:07;102108.66;;;12.40;89.82
8398;BME280;4236;54.504;9.588;2022-07-29T01:21:50;102111.53;;;12.38;89.62
8398;BME280;4236;54.504;9.588;2022-07-29T01:24:51;102112.38;;;12.39;90.00
8398;BME280;4236;54.504;9.588;2022-07-29T01:27:34;102102.03;;;12.36;90.01
8398;BME280;4236;54.504;9.588;2022-07-29T01:30:09;102102.03;;;12.36;90.26
8398;BME280;4236;54.504;9.588;2022-07-29T01:32:42;102099.34;;;12.36;90.71
8398;BME280;4236;54.504;9.588;2022-07-29T01:35:17;102097.66;;;12.35;90.41
8398;BME280;4236;54.504;9.588;2022-07-29T01:37:50;102091.84;;;12.31;90.32
8398;BME280;4236;54.504;9.588;2022-07-29T01:40:22;102092.88;;;12.30;90.72
8398;BME280;4236;54.504;9.588;2022-07-29T01:42:52;102099.72;;;12.25;90.41
8398;BME280;4236;54.504;9.588;2022-07-29T01:45:26;102097.56;;;12.20;90.12
8398;BME280;4236;54.504;9.588;2022-07-29T01:48:00;102094.94;;;12.12;89.93
8398;BME280;4236;54.504;9.588;2022-07-29T01:50:32;102104.00;;;12.03;89.55
8398;BME280;4236;54.504;9.588;2022-07-29T01:53:02;102099.50;;;11.95;89.69
8398;BME280;4236;54.504;9.588;2022-07-29T01:55:40;102095.03;;;11.88;89.69
8398;BME280;4236;54.504;9.588;2022-07-29T01:58:11;102099.59;;;11.79;89.35
8398;BME280;4236;54.504;9.588;2022-07-29T02:00:41;102098.09;;;11.77;90.04
8398;BME280;4236;54.504;9.588;2022-07-29T02:03:12;102090.88;;;11.77;90.78
8398;BME280;4236;54.504;9.588;2022-07-29T02:05:42;102094.25;;;11.79;91.17
8398;BME280;4236;54.504;9.588;2022-07-29T02:08:12;102087.72;;;11.82;91.66
8398;BME280;4236;54.504;9.588;2022-07-29T02:10:42;102081.00;;;11.86;92.27
8398;BME280;4236;54.504;9.588;2022-07-29T02:13:12;102080.66;;;11.89;92.80
8398;BME280;4236;54.504;9.588;2022-07-29T02:15:42;102084.84;;;11.91;93.21
8398;BME280;4236;54.504;9.588;2022-07-29T02:18:15;102078.81;;;11.97;94.21
8398;BME280;4236;54.504;9.588;2022-07-29T02:20:45;102074.09;;;11.99;95.92
8398;BME280;4236;54.504;9.588;2022-07-29T02:23:17;102073.28;;;11.99;96.13
8398;BME280;4236;54.504;9.588;2022-07-29T02:25:48;102082.78;;;12.01;96.54
8398;BME280;4236;54.504;9.588;2022-07-29T02:28:18;102073.75;;;12.02;97.48
8398;BME280;4236;54.504;9.588;2022-07-29T02:30:49;102074.59;;;12.03;97.49
8398;BME280;4236;54.504;9.588;2022-07-29T02:33:18;102077.94;;;12.05;97.83
8398;BME280;4236;54.504;9.588;2022-07-29T02:35:47;102078.75;;;12.05;98.11
8398;BME280;4236;54.504;9.588;2022-07-29T02:38:16;102079.94;;;12.03;98.20
8398;BME280;4236;54.504;9.588;2022-07-29T02:41:20;102084.31;;;11.96;97.54
8398;BME280;4236;54.504;9.588;2022-07-29T02:43:53;102078.31;;;11.86;97.14
8398;BME280;4236;54.504;9.588;2022-07-29T02:46:27;102077.03;;;11.82;96.81
8398;BME280;4236;54.504;9.588;2022-07-29T02:49:01;102082.06;;;11.77;96.68
8398;BME280;4236;54.504;9.588;2022-07-29T02:51:34;102080.06;;;11.71;96.03
8398;BME280;4236;54.504;9.588;2022-07-29T02:54:11;102068.66;;;11.68;96.16
8398;BME280;4236;54.504;9.588;2022-07-29T02:56:43;102081.72;;;11.72;96.60
8398;BME280;4236;54.504;9.588;2022-07-29T02:59:13;102075.38;;;11.73;96.88
8398;BME280;4236;54.504;9.588;2022-07-29T03:01:45;102079.03;;;11.72;96.51
8398;BME280;4236;54.504;9.588;2022-07-29T03:04:14;102078.69;;;11.75;97.51
8398;BME280;4236;54.504;9.588;2022-07-29T03:06:44;102078.53;;;11.76;97.59
8398;BME280;4236;54.504;9.588;2022-07-29T03:09:13;102079.03;;;11.80;97.63
8398;BME280;4236;54.504;9.588;2022-07-29T03:11:43;102075.66;;;11.86;98.29
8398;BME280;4236;54.504;9.588;2022-07-29T03:14:17;102076.81;;;11.91;98.63
8398;BME280;4236;54.504;9.588;2022-07-29T03:16:48;102065.78;;;11.94;98.73
8398;BME280;4236;54.504;9.588;2022-07-29T03:19:16;102065.09;;;12.00;98.87
8398;BME280;4236;54.504;9.588;2022-07-29T03:21:44;102061.88;;;12.05;99.40
8398;BME280;4236;54.504;9.588;2022-07-29T03:24:24;102062.19;;;12.10;100.00
8398;BME280;4236;54.504;9.588;2022-07-29T03:26:52;102058.16;;;12.14;100.00
8398;BME280;4236;54.504;9.588;2022-07-29T03:29:19;102053.78;;;12.21;100.00
8398;BME280;4236;54.504;9.588;2022-07-29T03:31:51;102055.94;;;12.26;100.00
8398;BME280;4236;54.504;9.588;2022-07-29T03:34:19;102052.75;;;12.30;100.00
8398;BME280;4236;54.504;9.588;2022-07-29T03:36:49;102061.53;;;12.39;100.00
8398;BME280;4236;54.504;9.588;2022-07-29T03:39:20;102051.78;;;12.46;100.00
8398;BME280;4236;54.504;9.588;2022-07-29T03:41:51;102048.25;;;12.53;100.00
8398;BME280;4236;54.504;9.588;2022-07-29T03:44:21;102051.50;;;12.63;100.00
8398;BME280;4236;54.504;9.588;2022-07-29T03:46:51;102054.97;;;12.72;100.00
8398;BME280;4236;54.504;9.588;2022-07-29T03:49:21;102056.22;;;12.84;100.00
8398;BME280;4236;54.504;9.588;2022-07-29T03:51:51;102047.47;;;12.90;100.00
8398;BME280;4236;54.504;9.588;2022-07-29T03:54:18;102041.47;;;13.03;100.00
8398;BME280;4236;54.504;9.588;2022-07-29T03:56:48;102043.56;;;13.15;100.00
8398;BME280;4236;54.504;9.588;2022-07-29T03:59:17;102047.47;;;13.27;100.00
8398;BME280;4236;54.504;9.588;2022-07-29T04:01:47;102050.81;;;13.44;100.00
8398;BME280;4236;54.504;9.588;2022-07-29T04:04:17;102034.66;;;13.52;100.00
8398;BME280;4236;54.504;9.588;2022-07-29T04:06:46;102042.50;;;13.54;100.00
8398;BME280;4236;54.504;9.588;2022-07-29T04:09:14;102044.44;;;13.60;100.00
8398;BME280;4236;54.504;9.588;2022-07-29T04:11:42;102038.81;;;13.69;100.00
8398;BME280;4236;54.504;9.588;2022-07-29T04:14:29;102045.84;;;13.70;99.90
8398;BME280;4236;54.504;9.588;2022-07-29T04:16:57;102045.75;;;13.78;99.97
8398;BME280;4236;54.504;9.588;2022-07-29T04:19:26;102043.63;;;13.89;99.57
8398;BME280;4236;54.504;9.588;2022-07-29T04:21:54;102049.88;;;13.96;99.32
8398;BME280;4236;54.504;9.588;2022-07-29T04:24:21;102054.34;;;14.03;98.25
8398;BME280;4236;54.504;9.588;2022-07-29T04:26:49;102056.53;;;14.14;98.36
8398;BME280;4236;54.504;9.588;2022-07-29T04:29:16;102041.72;;;14.18;96.78
8398;BME280;4236;54.504;9.588;2022-07-29T04:31:44;102041.97;;;14.23;95.88
8398;BME280;4236;54.504;9.588;2022-07-29T04:34:12;102048.81;;;14.26;95.20
8398;BME280;4236;54.504;9.588;2022-07-29T04:36:41;102041.34;;;14.36;95.06
8398;BME280;4236;54.504;9.588;2022-07-29T04:39:09;102041.34;;;14.36;93.04
8398;BME280;4236;54.504;9.588;2022-07-29T04:41:36;102041.97;;;14.38;93.42
8398;BME280;4236;54.504;9.588;2022-07-29T04:44:04;102040.69;;;14.55;94.28
8398;BME280;4236;54.504;9.588;2022-07-29T04:46:34;102042.63;;;14.82;94.42
8398;BME280;4236;54.504;9.588;2022-07-29T04:49:02;102032.59;;;15.19;92.85
8398;BME280;4236;54.504;9.588;2022-07-29T04:51:30;102041.63;;;15.39;91.63
8398;BME280;4236;54.504;9.588;2022-07-29T04:53:59;102036.06;;;15.75;91.98
8398;BME280;4236;54.504;9.588;2022-07-29T04:56:27;102035.03;;;16.17;89.62
8398;BME280;4236;54.504;9.588;2022-07-29T04:58:54;102043.56;;;16.40;86.75
8398;BME280;4236;54.504;9.588;2022-07-29T05:01:22;102041.78;;;16.67;82.73
8398;BME280;4236;54.504;9.588;2022-07-29T05:03:50;102036.22;;;16.75;82.57
8398;BME280;4236;54.504;9.588;2022-07-29T05:06:23;102043.06;;;16.84;81.76
8398;BME280;4236;54.504;9.588;2022-07-29T05:08:51;102038.91;;;16.94;81.35
8398;BME280;4236;54.504;9.588;2022-07-29T05:11:20;102035.19;;;16.95;80.57
8398;BME280;4236;54.504;9.588;2022-07-29T05:13:52;102048.06;;;16.93;79.67
8398;BME280;4236;54.504;9.588;2022-07-29T05:16:20;102035.81;;;16.71;80.67
8398;BME280;4236;54.504;9.588;2022-07-29T05:18:48;102041.84;;;16.86;81.33
8398;BME280;4236;54.504;9.588;2022-07-29T05:21:16;102033.75;;;16.80;81.13
8398;BME280;4236;54.504;9.588;2022-07-29T05:23:44;102043.47;;;16.74;80.64
8398;BME280;4236;54.504;9.588;2022-07-29T05:26:11;102042.63;;;16.54;80.88
8398;BME280;4236;54.504;9.588;2022-07-29T05:28:40;102036.78;;;16.50;82.51
8398;BME280;4236;54.504;9.588;2022-07-29T05:31:08;102036.56;;;16.52;83.04
8398;BME280;4236;54.504;9.588;2022-07-29T05:33:36;102041.41;;;16.63;83.68
8398;BME280;4236;54.504;9.588;2022-07-29T05:36:04;102034.34;;;16.88;83.42
8398;BME280;4236;54.504;9.588;2022-07-29T05:38:33;102027.50;;;17.19;81.97
8398;BME280;4236;54.504;9.588;2022-07-29T05:41:01;102037.66;;;17.36;79.01
8398;BME280;4236;54.504;9.588;2022-07-29T05:43:29;102034.75;;;17.38;76.84
8398;BME280;4236;54.504;9.588;2022-07-29T05:45:58;102031.13;;;17.83;79.27
8398;BME280;4236;54.504;9.588;2022-07-29T05:48:26;102036.44;;;18.09;77.31
8398;BME280;4236;54.504;9.588;2022-07-29T05:50:54;102046.38;;;18.60;75.53
8398;BME280;4236;54.504;9.588;2022-07-29T05:53:22;102038.34;;;18.78;74.24
8398;BME280;4236;54.504;9.588;2022-07-29T05:55:50;102039.41;;;19.02;70.87
8398;BME280;4236;54.504;9.588;2022-07-29T05:58:18;102040.88;;;19.47;73.17
8398;BME280;4236;54.504;9.588;2022-07-29T06:00:46;102031.31;;;19.45;69.19
8398;BME280;4236;54.504;9.588;2022-07-29T06:03:15;102036.38;;;19.41;68.23
8398;BME280;4236;54.504;9.588;2022-07-29T06:05:42;102044.78;;;19.51;70.68
8398;BME280;4236;54.504;9.588;2022-07-29T06:08:10;102038.28;;;19.59;70.13
8398;BME280;4236;54.504;9.588;2022-07-29T06:10:38;102046.06;;;19.49;69.60
8398;BME280;4236;54.504;9.588;2022-07-29T06:13:05;102047.63;;;19.56;70.54
8398;BME280;4236;54.504;9.588;2022-07-29T06:15:33;102046.66;;;19.69;71.05
8398;BME280;4236;54.504;9.588;2022-07-29T06:18:01;102037.44;;;19.58;68.31
8398;BME280;4236;54.504;9.588;2022-07-29T06:20:30;102039.75;;;19.73;68.79
8398;BME280;4236;54.504;9.588;2022-07-29T06:22:59;102040.03;;;20.01;68.29
8398;BME280;4236;54.504;9.588;2022-07-29T06:25:27;102048.47;;;20.29;66.49
8398;BME280;4236;54.504;9.588;2022-07-29T06:27:56;102049.97;;;20.25;65.33
8398;BME280;4236;54.504;9.588;2022-07-29T06:30:24;102045.31;;;20.74;68.11
8398;BME280;4236;54.504;9.588;2022-07-29T06:32:52;102044.63;;;20.78;65.41
8398;BME280;4236;54.504;9.588;2022-07-29T06:35:19;102053.72;;;20.95;62.72
8398;BME280;4236;54.504;9.588;2022-07-29T06:38:09;102057.03;;;20.97;63.27
8398;BME280;4236;54.504;9.588;2022-07-29T06:40:57;102051.69;;;21.44;64.78
8398;BME280;4236;54.504;9.588;2022-07-29T06:43:30;102055.41;;;21.89;58.97
8398;BME280;4236;54.504;9.588;2022-07-29T06:46:00;102053.81;;;22.61;63.14
8398;BME280;4236;54.504;9.588;2022-07-29T06:48:29;102053.88;;;23.45;59.58
8398;BME280;4236;54.504;9.588;2022-07-29T06:50:57;102051.03;;;22.85;55.70
8398;BME280;4236;54.504;9.588;2022-07-29T06:53:26;102053.44;;;22.25;57.69
8398;BME280;4236;54.504;9.588;2022-07-29T06:55:53;102055.63;;;22.56;58.39
8398;BME280;4236;54.504;9.588;2022-07-29T06:58:21;102052.31;;;22.66;57.38
8398;BME280;4236;54.504;9.588;2022-07-29T07:00:49;102053.06;;;22.94;55.92
8398;BME280;4236;54.504;9.588;2022-07-29T07:03:17;102046.94;;;23.54;52.62
8398;BME280;4236;54.504;9.588;2022-07-29T07:05:45;102045.84;;;24.15;51.47
8398;BME280;4236;54.504;9.588;2022-07-29T07:08:13;102036.31;;;24.39;54.14
8398;BME280;4236;54.504;9.588;2022-07-29T07:10:43;102053.22;;;24.95;50.80
8398;BME280;4236;54.504;9.588;2022-07-29T07:13:11;102038.63;;;25.11;51.41
8398;BME280;4236;54.504;9.588;2022-07-29T07:15:39;102040.94;;;25.34;48.55
8398;BME280;4236;54.504;9.588;2022-07-29T07:18:07;102043.06;;;25.64;50.25
8398;BME280;4236;54.504;9.588;2022-07-29T07:20:35;102040.94;;;26.43;49.60
8398;BME280;4236;54.504;9.588;2022-07-29T07:23:03;102036.59;;;26.82;44.20
8398;BME280;4236;54.504;9.588;2022-07-29T07:25:31;102046.69;;;26.62;46.49
8398;BME280;4236;54.504;9.588;2022-07-29T07:28:01;102033.56;;;26.69;42.53
8398;BME280;4236;54.504;9.588;2022-07-29T07:30:28;102044.22;;;26.65;46.09
8398;BME280;4236;54.504;9.588;2022-07-29T07:32:57;102040.66;;;26.55;44.58
8398;BME280;4236;54.504;9.588;2022-07-29T07:35:24;102038.72;;;26.45;44.55
8398;BME280;4236;54.504;9.588;2022-07-29T07:37:54;102046.28;;;26.13;45.60
8398;BME280;4236;54.504;9.588;2022-07-29T07:40:22;102039.72;;;26.14;46.80
8398;BME280;4236;54.504;9.588;2022-07-29T07:42:50;102045.94;;;25.89;46.21
8398;BME280;4236;54.504;9.588;2022-07-29T07:45:19;102034.13;;;25.78;46.75
8398;BME280;4236;54.504;9.588;2022-07-29T07:47:46;102037.16;;;25.87;45.79
8398;BME280;4236;54.504;9.588;2022-07-29T07:50:14;102038.19;;;25.71;45.82
8398;BME280;4236;54.504;9.588;2022-07-29T07:52:49;102034.34;;;25.25;45.27
8398;BME280;4236;54.504;9.588;2022-07-29T07:55:18;102041.13;;;24.86;45.86
8398;BME280;4236;54.504;9.588;2022-07-29T07:57:46;102033.66;;;24.22;48.73
8398;BME280;4236;54.504;9.588;2022-07-29T08:00:15;102033.97;;;24.04;47.87
8398;BME280;4236;54.504;9.588;2022-07-29T08:02:45;102026.22;;;24.13;47.36
8398;BME280;4236;54.504;9.588;2022-07-29T08:05:13;102025.81;;;23.83;47.78
8398;BME280;4236;54.504;9.588;2022-07-29T08:07:44;102024.63;;;23.74;45.71
8398;BME280;4236;54.504;9.588;2022-07-29T08:10:12;102018.00;;;23.69;46.16
8398;BME280;4236;54.504;9.588;2022-07-29T08:12:41;102025.34;;;23.69;46.82
8398;BME280;4236;54.504;9.588;2022-07-29T08:15:09;102021.16;;;23.40;47.70
8398;BME280;4236;54.504;9.588;2022-07-29T08:17:36;102029.16;;;23.46;48.49
8398;BME280;4236;54.504;9.588;2022-07-29T08:20:06;102025.94;;;23.16;48.65
8398;BME280;4236;54.504;9.588;2022-07-29T08:22:34;102025.91;;;23.33;48.66
8398;BME280;4236;54.504;9.588;2022-07-29T08:25:01;102017.09;;;23.42;46.74
8398;BME280;4236;54.504;9.588;2022-07-29T08:27:29;102015.25;;;23.64;47.38
8398;BME280;4236;54.504;9.588;2022-07-29T08:30:09;102013.56;;;23.63;44.79
8398;BME280;4236;54.504;9.588;2022-07-29T08:32:37;102018.78;;;23.87;43.27
8398;BME280;4236;54.504;9.588;2022-07-29T08:35:23;102016.50;;;24.22;43.34
8398;BME280;4236;54.504;9.588;2022-07-29T08:37:52;102014.50;;;24.39;44.02
8398;BME280;4236;54.504;9.588;2022-07-29T08:40:20;102007.69;;;24.42;42.55
8398;BME280;4236;54.504;9.588;2022-07-29T08:42:58;102014.69;;;24.33;42.73
8398;BME280;4236;54.504;9.588;2022-07-29T08:45:27;102016.34;;;24.34;42.71
8398;BME280;4236;54.504;9.588;2022-07-29T08:47:56;102012.13;;;24.21;41.73
8398;BME280;4236;54.504;9.588;2022-07-29T08:50:25;102009.06;;;23.96;43.26
8398;BME280;4236;54.504;9.588;2022-07-29T08:52:53;102006.50;;;23.84;43.70
8398;BME280;4236;54.504;9.588;2022-07-29T08:55:25;102002.41;;;23.87;42.75
8398;BME280;4236;54.504;9.588;2022-07-29T08:57:54;102002.22;;;23.72;42.58
8398;BME280;4236;54.504;9.588;2022-07-29T09:00:23;102004.53;;;23.80;42.85
8398;BME280;4236;54.504;9.588;2022-07-29T09:02:56;102002.88;;;23.79;42.79
8398;BME280;4236;54.504;9.588;2022-07-29T09:05:26;102000.09;;;23.74;43.11
8398;BME280;4236;54.504;9.588;2022-07-29T09:07:55;102001.97;;;23.51;44.46
8398;BME280;4236;54.504;9.588;2022-07-29T09:10:23;102003.56;;;23.31;44.45
8398;BME280;4236;54.504;9.588;2022-07-29T09:12:51;102001.47;;;23.54;43.47
8398;BME280;4236;54.504;9.588;2022-07-29T09:15:19;101999.53;;;23.50;43.14
8398;BME280;4236;54.504;9.588;2022-07-29T09:17:48;102001.25;;;23.39;45.81
8398;BME280;4236;54.504;9.588;2022-07-29T09:20:17;102002.34;;;23.38;44.68
8398;BME280;4236;54.504;9.588;2022-07-29T09:22:47;102004.19;;;23.54;43.94
8398;BME280;4236;54.504;9.588;2022-07-29T09:25:31;101990.84;;;23.75;43.16
8398;BME280;4236;54.504;9.588;2022-07-29T09:28:06;101998.75;;;23.98;43.74
8398;BME280;4236;54.504;9.588;2022-07-29T09:30:34;101998.31;;;24.06;43.24
8398;BME280;4236;54.504;9.588;2022-07-29T09:33:04;101998.22;;;24.22;43.38
8398;BME280;4236;54.504;9.588;2022-07-29T09:35:32;102005.03;;;24.20;43.24
8398;BME280;4236;54.504;9.588;2022-07-29T09:38:11;101997.16;;;24.02;43.20
8398;BME280;4236;54.504;9.588;2022-07-29T09:40:39;101997.66;;;23.99;44.08
8398;BME280;4236;54.504;9.588;2022-07-29T09:43:10;101997.97;;;24.24;44.01
8398;BME280;4236;54.504;9.588;2022-07-29T09:45:39;101990.72;;;24.35;42.81
8398;BME280;4236;54.504;9.588;2022-07-29T09:48:14;101986.66;;;24.37;42.97
8398;BME280;4236;54.504;9.588;2022-07-29T09:50:43;102003.16;;;24.26;42.69
8398;BME280;4236;54.504;9.588;2022-07-29T09:53:29;102000.00;;;24.34;42.42
8398;BME280;4236;54.504;9.588;2022-07-29T09:55:58;101994.31;;;24.13;42.89
8398;BME280;4236;54.504;9.588;2022-07-29T09:58:25;101985.66;;;23.95;42.83
8398;BME280;4236;54.504;9.588;2022-07-29T10:00:54;101987.03;;;23.97;43.52
8398;BME280;4236;54.504;9.588;2022-07-29T10:03:23;101985.38;;;23.96;43.28
8398;BME280;4236;54.504;9.588;2022-07-29T10:06:07;101999.06;;;24.01;44.52
8398;BME280;4236;54.504;9.588;2022-07-29T10:08:37;101989.09;;;24.34;44.47
8398;BME280;4236;54.504;9.588;2022-07-29T10:11:12;101997.34;;;24.44;43.59
8398;BME280;4236;54.504;9.588;2022-07-29T10:13:41;101984.06;;;24.52;43.76
8398;BME280;4236;54.504;9.588;2022-07-29T10:16:09;101983.72;;;24.44;43.16
8398;BME280;4236;54.504;9.588;2022-07-29T10:18:40;101983.63;;;24.34;44.64
8398;BME280;4236;54.504;9.588;2022-07-29T10:21:08;101989.28;;;24.54;44.58
8398;BME280;4236;54.504;9.588;2022-07-29T10:23:49;101983.81;;;24.54;44.07
8398;BME280;4236;54.504;9.588;2022-07-29T10:26:17;101991.66;;;24.77;43.77
8398;BME280;4236;54.504;9.588;2022-07-29T10:28:45;101981.69;;;24.88;43.18
8398;BME280;4236;54.504;9.588;2022-07-29T10:31:19;101987.91;;;24.83;44.23
8398;BME280;4236;54.504;9.588;2022-07-29T10:34:00;101986.03;;;24.57;46.11
8398;BME280;4236;54.504;9.588;2022-07-29T10:36:40;101987.41;;;24.59;45.63
8398;BME280;4236;54.504;9.588;2022-07-29T10:39:19;101986.75;;;24.20;47.04
8398;BME280;4236;54.504;9.588;2022-07-29T10:42:08;101983.63;;;24.34;47.08
8398;BME280;4236;54.504;9.588;2022-07-29T10:44:42;101991.69;;;24.23;47.84
8398;BME280;4236;54.504;9.588;2022-07-29T10:47:19;101978.88;;;23.97;48.00
8398;BME280;4236;54.504;9.588;2022-07-29T10:49:56;101982.41;;;23.98;46.49
8398;BME280;4236;54.504;9.588;2022-07-29T10:52:54;101987.03;;;24.19;45.81
8398;BME280;4236;54.504;9.588;2022-07-29T10:55:37;101989.50;;;24.20;46.53
8398;BME280;4236;54.504;9.588;2022-07-29T10:58:15;101984.50;;;24.39;46.80
8398;BME280;4236;54.504;9.588;2022-07-29T11:00:44;101988.09;;;24.76;46.02
8398;BME280;4236;54.504;9.588;2022-07-29T11:03:43;101987.91;;;24.83;45.50
8398;BME280;4236;54.504;9.588;2022-07-29T11:06:17;101991.50;;;24.89;46.02
8398;BME280;4236;54.504;9.588;2022-07-29T11:09:17;101994.72;;;24.81;45.19
8398;BME280;4236;54.504;9.588;2022-07-29T11:12:02;101986.66;;;25.01;45.11
8398;BME280;4236;54.504;9.588;2022-07-29T11:14:55;101988.25;;;24.92;44.44
8398;BME280;4236;54.504;9.588;2022-07-29T11:17:23;101982.13;;;24.48;48.03
8398;BME280;4236;54.504;9.588;2022-07-29T11:19:52;101979.91;;;24.45;48.34
8398;BME280;4236;54.504;9.588;2022-07-29T11:22:40;101977.94;;;24.40;46.87
8398;BME280;4236;54.504;9.588;2022-07-29T11:25:13;101981.19;;;24.37;48.21
8398;BME280;4236;54.504;9.588;2022-07-29T11:27:44;101985.25;;;24.35;48.88
8398;BME280;4236;54.504;9.588;2022-07-29T11:30:13;101979.72;;;24.51;47.64
8398;BME280;4236;54.504;9.588;2022-07-29T11:32:42;101975.22;;;24.67;47.03
8398;BME280;4236;54.504;9.588;2022-07-29T11:35:16;101979.66;;;24.78;47.29
8398;BME280;4236;54.504;9.588;2022-07-29T11:38:25;101974.97;;;24.73;46.39
8398;BME280;4236;54.504;9.588;2022-07-29T11:41:20;101972.88;;;24.49;47.07
8398;BME280;4236;54.504;9.588;2022-07-29T11:43:51;101967.25;;;24.60;46.81
8398;BME280;4236;54.504;9.588;2022-07-29T11:46:43;101973.38;;;24.77;42.54
8398;BME280;4236;54.504;9.588;2022-07-29T11:49:12;101959.97;;;25.03;43.79
8398;BME280;4236;54.504;9.588;2022-07-29T11:51:41;101973.81;;;25.43;43.15
8398;BME280;4236;54.504;9.588;2022-07-29T11:54:16;101959.97;;;25.55;42.25
8398;BME280;4236;54.504;9.588;2022-07-29T11:56:53;101961.94;;;25.69;42.67
8398;BME280;4236;54.504;9.588;2022-07-29T11:59:22;101965.56;;;25.80;42.17
8398;BME280;4236;54.504;9.588;2022-07-29T12:02:00;101972.69;;;25.91;41.46
8398;BME280;4236;54.504;9.588;2022-07-29T12:04:48;101967.22;;;25.86;40.41
8398;BME280;4236;54.504;9.588;2022-07-29T12:07:17;101963.13;;;25.99;40.15
8398;BME280;4236;54.504;9.588;2022-07-29T12:09:49;101967.59;;;26.30;40.48
8398;BME280;4236;54.504;9.588;2022-07-29T12:12:17;101974.06;;;25.94;39.82
8398;BME280;4236;54.504;9.588;2022-07-29T12:14:51;101970.53;;;26.03;40.03
8398;BME280;4236;54.504;9.588;2022-07-29T12:17:28;101971.91;;;26.06;39.50
8398;BME280;4236;54.504;9.588;2022-07-29T12:19:58;101978.25;;;26.31;40.39
8398;BME280;4236;54.504;9.588;2022-07-29T12:22:29;101967.59;;;26.35;39.68
8398;BME280;4236;54.504;9.588;2022-07-29T12:25:02;101972.78;;;26.21;37.88
8398;BME280;4236;54.504;9.588;2022-07-29T12:28:00;101959.34;;;26.10;40.53
8398;BME280;4236;54.504;9.588;2022-07-29T12:30:38;101966.50;;;26.21;38.42
8398;BME280;4236;54.504;9.588;2022-07-29T12:33:15;101967.56;;;26.15;38.33
8398;BME280;4236;54.504;9.588;2022-07-29T12:35:45;101963.75;;;26.16;38.93
8398;BME280;4236;54.504;9.588;2022-07-29T12:38:32;101972.53;;;26.28;36.79
8398;BME280;4236;54.504;9.588;2022-07-29T12:41:01;101957.41;;;25.95;35.91
8398;BME280;4236;54.504;9.588;2022-07-29T12:43:30;101960.16;;;26.10;35.94
8398;BME280;4236;54.504;9.588;2022-07-29T12:46:12;101960.38;;;25.94;35.68
8398;BME280;4236;54.504;9.588;2022-07-29T12:48:41;101962.81;;;25.85;35.41
8398;BME280;4236;54.504;9.588;2022-07-29T12:51:10;101954.03;;;25.73;36.28
8398;BME280;4236;54.504;9.588;2022-07-29T12:53:40;101953.69;;;25.54;38.00
8398;BME280;4236;54.504;9.588;2022-07-29T12:56:15;101958.31;;;25.54;37.46
8398;BME280;4236;54.504;9.588;2022-07-29T12:59:12;101944.72;;;25.64;36.60
8398;BME280;4236;54.504;9.588;2022-07-29T13:01:42;101955.53;;;25.39;38.21
8398;BME280;4236;54.504;9.588;2022-07-29T13:04:10;101956.06;;;25.41;38.24
8398;BME280;4236;54.504;9.588;2022-07-29T13:06:39;101943.59;;;25.03;38.87
8398;BME280;4236;54.504;9.588;2022-07-29T13:09:13;101940.69;;;25.24;38.68
8398;BME280;4236;54.504;9.588;2022-07-29T13:11:42;101940.44;;;25.26;38.01
8398;BME280;4236;54.504;9.588;2022-07-29T13:14:30;101941.81;;;25.28;37.38
8398;BME280;4236;54.504;9.588;2022-07-29T13:17:04;101938.22;;;25.23;36.70
8398;BME280;4236;54.504;9.588;2022-07-29T13:19:34;101934.94;;;25.21;38.38
8398;BME280;4236;54.504;9.588;2022-07-29T13:22:02;101929.19;;;25.17;38.61
8398;BME280;4236;54.504;9.588;2022-07-29T13:24:30;101933.59;;;25.23;39.53
8398;BME280;4236;54.504;9.588;2022-07-29T13:26:57;101936.59;;;25.27;38.26
8398;BME280;4236;54.504;9.588;2022-07-29T13:29:25;101930.28;;;25.21;38.14
8398;BME280;4236;54.504;9.588;2022-07-29T13:31:57;101921.00;;;25.17;38.16
8398;BME280;4236;54.504;9.588;2022-07-29T13:34:27;101926.47;;;25.17;38.36